createdAt,value
2023-03-26T00:00:05.271Z,74.09
2023-03-26T00:01:14.129Z,74.31
2023-03-26T00:02:17.397Z,74.53
2023-03-26T00:03:20.836Z,74.38
2023-03-26T00:04:25.820Z,74.37
2023-03-26T00:05:29.057Z,74.56
2023-03-26T00:06:37.023Z,74.13
2023-03-26T00:07:40.298Z,74.22
2023-03-26T00:08:45.936Z,74.51
2023-03-26T00:09:49.237Z,74.55
2023-03-26T00:10:52.292Z,74.58
2023-03-26T00:11:56.816Z,74.80
2023-03-26T00:12:59.869Z,75.00
2023-03-26T00:14:03.003Z,74.76
2023-03-26T00:15:06.847Z,74.76
2023-03-26T00:16:14.040Z,74.73
2023-03-26T00:17:17.101Z,74.65
2023-03-26T00:18:22.595Z,74.54
2023-03-26T00:19:25.656Z,74.00
2023-03-26T00:20:33.023Z,74.21
2023-03-26T00:21:36.056Z,74.28
2023-03-26T00:22:40.616Z,74.40
2023-03-26T00:23:44.650Z,74.42
2023-03-26T00:24:49.635Z,74.20
2023-03-26T00:25:53.910Z,74.36
2023-03-26T00:27:00.023Z,74.17
2023-03-26T00:28:04.057Z,74.14
2023-03-26T00:29:08.615Z,73.69
2023-03-26T00:30:12.477Z,73.60
2023-03-26T00:31:16.034Z,73.75
2023-03-26T00:32:19.131Z,73.86
2023-03-26T00:33:21.958Z,73.74
2023-03-26T00:34:25.118Z,73.60
2023-03-26T00:35:29.604Z,73.68
2023-03-26T00:36:36.151Z,73.96
2023-03-26T00:37:42.654Z,74.05
2023-03-26T00:38:47.199Z,73.54
2023-03-26T00:39:50.248Z,73.66
2023-03-26T00:40:53.663Z,73.75
2023-03-26T00:41:56.687Z,73.81
2023-03-26T00:42:59.781Z,73.85
2023-03-26T00:44:02.939Z,73.68
2023-03-26T00:45:07.696Z,73.66
2023-03-26T00:46:11.107Z,73.73
2023-03-26T00:47:14.075Z,74.01
2023-03-26T00:48:18.310Z,74.02
2023-03-26T00:49:21.433Z,73.98
2023-03-26T00:50:24.361Z,73.49
2023-03-26T00:51:29.111Z,73.56
2023-03-26T00:52:32.006Z,73.95
2023-03-26T00:53:35.059Z,74.06
2023-03-26T00:54:38.033Z,74.04
2023-03-26T00:55:42.429Z,74.15
2023-03-26T00:56:45.867Z,74.17
2023-03-26T00:57:48.930Z,74.34
2023-03-26T00:58:52.094Z,74.38
2023-03-26T00:59:55.138Z,74.30
2023-03-26T01:01:01.152Z,74.58
2023-03-26T01:02:04.869Z,74.64
2023-03-26T01:03:17.277Z,74.52
2023-03-26T01:04:34.878Z,74.42
2023-03-26T01:05:45.569Z,73.92
2023-03-26T01:06:48.887Z,74.03
2023-03-26T01:07:51.996Z,74.51
2023-03-26T01:09:00.627Z,74.37
2023-03-26T01:10:03.694Z,74.04
2023-03-26T01:11:17.030Z,73.87
2023-03-26T01:12:22.839Z,73.96
2023-03-26T01:13:26.008Z,74.05
2023-03-26T01:14:30.028Z,73.93
2023-03-26T01:15:34.008Z,73.92
2023-03-26T01:16:39.663Z,73.93
2023-03-26T01:17:48.016Z,73.99
2023-03-26T01:18:53.289Z,74.22
2023-03-26T01:20:13.522Z,74.46
2023-03-26T01:21:28.927Z,74.42
2023-03-26T01:22:34.988Z,74.51
2023-03-26T01:23:46.759Z,74.57
2023-03-26T01:24:54.187Z,74.46
2023-03-26T01:26:10.923Z,74.08
2023-03-26T01:27:35.047Z,74.08
2023-03-26T01:28:41.624Z,73.86
2023-03-26T01:29:53.119Z,73.90
2023-03-26T01:31:06.993Z,73.85
2023-03-26T01:32:32.174Z,73.87
2023-03-26T01:33:49.375Z,73.66
2023-03-26T01:35:05.000Z,73.78
2023-03-26T01:37:03.214Z,73.76
2023-03-26T01:38:33.217Z,73.59
2023-03-26T01:40:07.686Z,73.84
2023-03-26T01:41:31.528Z,73.49
2023-03-26T01:42:42.722Z,73.48
2023-03-26T01:44:07.255Z,73.70
2023-03-26T01:45:15.840Z,73.67
2023-03-26T01:46:20.143Z,73.54
2023-03-26T01:47:23.594Z,73.64
2023-03-26T01:48:36.546Z,73.71
2023-03-26T01:49:39.527Z,73.81
2023-03-26T01:50:42.734Z,73.90
2023-03-26T01:51:45.915Z,73.97
2023-03-26T01:52:48.983Z,74.18
2023-03-26T01:53:54.288Z,74.25
2023-03-26T01:54:57.921Z,74.36
2023-03-26T01:56:11.244Z,74.41
2023-03-26T01:57:50.241Z,74.40
2023-03-26T01:59:16.639Z,74.28
2023-03-26T02:00:34.165Z,74.15
2023-03-26T02:01:55.171Z,74.16
2023-03-26T02:03:23.495Z,74.40
2023-03-26T02:04:44.857Z,74.31
2023-03-26T02:05:56.946Z,74.36
2023-03-26T02:07:29.664Z,74.44
2023-03-26T02:08:41.515Z,74.59
2023-03-26T02:09:52.918Z,74.73
2023-03-26T02:10:59.353Z,74.98
2023-03-26T02:12:04.556Z,75.08
2023-03-26T02:13:07.999Z,75.13
2023-03-26T02:14:11.442Z,75.26
2023-03-26T02:15:14.448Z,75.43
2023-03-26T02:16:19.659Z,75.49
2023-03-26T02:17:24.754Z,76.03
2023-03-26T02:18:39.358Z,76.12
2023-03-26T02:19:42.406Z,76.17
2023-03-26T02:20:45.539Z,76.04
2023-03-26T02:21:51.739Z,76.25
2023-03-26T02:22:54.560Z,76.39
2023-03-26T02:24:03.640Z,76.61
2023-03-26T02:25:12.278Z,76.69
2023-03-26T02:26:19.392Z,76.86
2023-03-26T02:27:22.343Z,77.10
2023-03-26T02:28:26.020Z,77.31
2023-03-26T02:29:29.061Z,77.05
2023-03-26T02:30:33.861Z,77.11
2023-03-26T02:31:37.074Z,77.41
2023-03-26T02:32:40.084Z,77.61
2023-03-26T02:33:45.238Z,77.70
2023-03-26T02:34:48.485Z,77.97
2023-03-26T02:35:51.875Z,78.13
2023-03-26T02:36:55.091Z,78.42
2023-03-26T02:37:57.967Z,78.83
2023-03-26T02:39:01.115Z,78.76
2023-03-26T02:40:06.532Z,78.86
2023-03-26T02:41:11.788Z,79.05
2023-03-26T02:42:16.542Z,78.75
2023-03-26T02:43:19.499Z,79.06
2023-03-26T02:44:22.459Z,79.02
2023-03-26T02:45:25.568Z,78.88
2023-03-26T02:46:28.896Z,79.23
2023-03-26T02:47:31.725Z,79.33
2023-03-26T02:48:35.605Z,79.52
2023-03-26T02:49:38.704Z,79.96
2023-03-26T02:50:42.418Z,80.01
2023-03-26T02:51:45.257Z,80.02
2023-03-26T02:52:49.736Z,80.31
2023-03-26T02:53:54.054Z,80.25
2023-03-26T02:54:57.662Z,80.03
2023-03-26T02:56:00.967Z,80.01
2023-03-26T02:57:03.994Z,79.99
2023-03-26T02:58:07.462Z,80.41
2023-03-26T02:59:11.089Z,80.55
2023-03-26T03:00:14.554Z,80.70
2023-03-26T03:01:19.126Z,80.93
2023-03-26T03:02:24.575Z,80.63
2023-03-26T03:03:27.984Z,80.83
2023-03-26T03:04:31.045Z,80.97
2023-03-26T03:05:34.579Z,80.77
2023-03-26T03:06:41.260Z,80.61
2023-03-26T03:07:46.823Z,80.46
2023-03-26T03:08:50.218Z,80.48
2023-03-26T03:09:53.106Z,80.21
2023-03-26T03:11:11.703Z,80.41
2023-03-26T03:12:14.613Z,80.63
2023-03-26T03:13:17.871Z,81.07
2023-03-26T03:14:20.943Z,81.10
2023-03-26T03:15:23.902Z,80.90
2023-03-26T03:16:27.712Z,81.01
2023-03-26T03:17:30.771Z,81.34
2023-03-26T03:18:33.867Z,81.47
2023-03-26T03:19:38.274Z,81.46
2023-03-26T03:20:41.817Z,81.86
2023-03-26T03:21:44.693Z,81.44
2023-03-26T03:22:47.736Z,81.33
2023-03-26T03:23:51.136Z,81.50
2023-03-26T03:24:57.944Z,81.51
2023-03-26T03:26:02.808Z,81.27
2023-03-26T03:27:06.035Z,81.11
2023-03-26T03:28:09.809Z,81.21
2023-03-26T03:29:13.319Z,81.33
2023-03-26T03:30:16.402Z,81.27
2023-03-26T03:31:19.514Z,81.47
2023-03-26T03:32:24.407Z,81.63
2023-03-26T03:33:27.520Z,81.53
2023-03-26T03:34:30.397Z,81.66
2023-03-26T03:35:33.983Z,81.62
2023-03-26T03:36:38.803Z,81.37
2023-03-26T03:37:41.854Z,81.42
2023-03-26T03:38:46.046Z,81.37
2023-03-26T03:39:49.475Z,81.38
2023-03-26T03:40:54.742Z,81.21
2023-03-26T03:41:57.872Z,81.19
2023-03-26T03:43:00.821Z,81.51
2023-03-26T03:44:04.003Z,81.53
2023-03-26T03:45:07.710Z,81.48
2023-03-26T03:46:10.701Z,81.41
2023-03-26T03:47:15.933Z,81.75
2023-03-26T03:48:19.369Z,82.05
2023-03-26T03:49:23.147Z,81.92
2023-03-26T03:50:27.233Z,82.12
2023-03-26T03:51:30.222Z,82.35
2023-03-26T03:52:33.617Z,82.40
2023-03-26T03:53:40.913Z,82.32
2023-03-26T03:54:43.837Z,82.48
2023-03-26T03:55:53.554Z,82.46
2023-03-26T03:56:56.883Z,82.66
2023-03-26T03:58:00.232Z,82.71
2023-03-26T03:59:03.197Z,82.58
2023-03-26T04:00:11.966Z,82.82
2023-03-26T04:01:17.463Z,83.04
2023-03-26T04:02:26.719Z,83.29
2023-03-26T04:03:33.589Z,83.35
2023-03-26T04:04:38.163Z,83.41
2023-03-26T04:05:41.085Z,83.62
2023-03-26T04:06:44.782Z,83.75
2023-03-26T04:07:47.863Z,83.83
2023-03-26T04:08:51.754Z,83.91
2023-03-26T04:09:54.789Z,83.88
2023-03-26T04:10:58.004Z,83.86
2023-03-26T04:12:00.843Z,83.76
2023-03-26T04:13:03.832Z,83.83
2023-03-26T04:14:06.665Z,83.91
2023-03-26T04:15:09.812Z,84.02
2023-03-26T04:16:12.808Z,83.68
2023-03-26T04:17:15.832Z,83.77
2023-03-26T04:18:20.691Z,83.80
2023-03-26T04:19:23.743Z,83.73
2023-03-26T04:20:27.334Z,83.63
2023-03-26T04:21:34.184Z,83.53
2023-03-26T04:22:37.039Z,83.55
2023-03-26T04:23:39.983Z,83.60
2023-03-26T04:24:42.782Z,83.52
2023-03-26T04:25:49.780Z,83.58
2023-03-26T04:26:52.764Z,83.51
2023-03-26T04:27:58.616Z,83.58
2023-03-26T04:29:06.688Z,83.57
2023-03-26T04:30:15.832Z,83.55
2023-03-26T04:31:24.814Z,83.73
2023-03-26T04:32:31.115Z,83.62
2023-03-26T04:33:35.393Z,83.42
2023-03-26T04:34:38.718Z,83.58
2023-03-26T04:35:44.668Z,83.40
2023-03-26T04:36:47.640Z,83.50
2023-03-26T04:37:50.561Z,83.63
2023-03-26T04:38:54.305Z,83.46
2023-03-26T04:39:57.365Z,83.29
2023-03-26T04:41:04.045Z,83.33
2023-03-26T04:42:10.407Z,83.76
2023-03-26T04:43:18.251Z,84.13
2023-03-26T04:44:22.926Z,83.49
2023-03-26T04:45:25.920Z,83.47
2023-03-26T04:46:33.799Z,83.72
2023-03-26T04:47:37.321Z,83.99
2023-03-26T04:48:42.003Z,83.98
2023-03-26T04:49:46.515Z,83.57
2023-03-26T04:50:49.886Z,83.74
2023-03-26T04:51:52.728Z,83.87
2023-03-26T04:52:57.677Z,83.85
2023-03-26T04:54:02.737Z,83.83
2023-03-26T04:55:21.429Z,83.89
2023-03-26T04:56:44.638Z,83.83
2023-03-26T04:57:54.142Z,83.26
2023-03-26T04:59:01.348Z,83.28
2023-03-26T05:00:16.173Z,83.18
2023-03-26T05:01:19.090Z,82.61
2023-03-26T05:02:21.979Z,82.53
2023-03-26T05:03:25.949Z,82.42
2023-03-26T05:04:34.901Z,82.27
2023-03-26T05:05:39.064Z,82.27
2023-03-26T05:06:43.119Z,81.81
2023-03-26T05:07:46.328Z,81.81
2023-03-26T05:08:49.851Z,81.60
2023-03-26T05:09:52.724Z,81.59
2023-03-26T05:10:56.939Z,81.77
2023-03-26T05:12:00.272Z,81.72
2023-03-26T05:13:03.337Z,81.70
2023-03-26T05:14:06.326Z,81.24
2023-03-26T05:15:11.717Z,81.30
2023-03-26T05:16:14.727Z,81.15
2023-03-26T05:17:19.414Z,81.01
2023-03-26T05:18:22.489Z,80.89
2023-03-26T05:19:25.750Z,81.13
2023-03-26T05:20:30.607Z,81.33
2023-03-26T05:21:33.908Z,81.39
2023-03-26T05:22:38.888Z,81.36
2023-03-26T05:23:41.702Z,81.15
2023-03-26T05:24:44.759Z,81.00
2023-03-26T05:25:47.674Z,80.98
2023-03-26T05:26:51.681Z,80.93
2023-03-26T05:27:54.616Z,80.73
2023-03-26T05:28:58.138Z,80.29
2023-03-26T05:30:02.785Z,79.71
2023-03-26T05:31:06.884Z,79.54
2023-03-26T05:32:10.639Z,79.48
2023-03-26T05:33:13.592Z,79.52
2023-03-26T05:34:16.661Z,79.42
2023-03-26T05:35:22.100Z,79.14
2023-03-26T05:36:25.301Z,79.11
2023-03-26T05:37:32.263Z,78.82
2023-03-26T05:38:36.064Z,78.58
2023-03-26T05:39:39.192Z,78.31
2023-03-26T05:40:42.288Z,77.89
2023-03-26T05:41:45.312Z,78.09
2023-03-26T05:42:48.347Z,77.88
2023-03-26T05:43:51.480Z,77.85
2023-03-26T05:44:54.392Z,77.95
2023-03-26T05:45:57.454Z,77.82
2023-03-26T05:47:00.430Z,77.73
2023-03-26T05:48:03.463Z,77.79
2023-03-26T05:49:06.515Z,77.82
2023-03-26T05:50:10.642Z,78.06
2023-03-26T05:51:16.168Z,77.96
2023-03-26T05:52:19.350Z,77.63
2023-03-26T05:53:23.801Z,77.89
2023-03-26T05:54:26.850Z,78.17
2023-03-26T05:55:29.634Z,78.09
2023-03-26T05:56:32.924Z,78.21
2023-03-26T05:57:36.398Z,78.28
2023-03-26T05:58:39.354Z,77.97
2023-03-26T05:59:42.514Z,77.32
2023-03-26T06:00:48.903Z,77.33
2023-03-26T06:01:54.958Z,77.38
2023-03-26T06:02:59.125Z,77.19
2023-03-26T06:04:02.117Z,76.84
2023-03-26T06:05:05.859Z,76.57
2023-03-26T06:06:11.394Z,76.26
2023-03-26T06:07:14.477Z,76.17
2023-03-26T06:08:17.506Z,75.74
2023-03-26T06:09:20.596Z,75.87
2023-03-26T06:10:24.081Z,75.76
2023-03-26T06:11:27.187Z,75.69
2023-03-26T06:12:30.221Z,75.29
2023-03-26T06:13:33.182Z,75.33
2023-03-26T06:14:36.596Z,75.26
2023-03-26T06:15:39.642Z,74.98
2023-03-26T06:16:42.503Z,74.81
2023-03-26T06:17:46.961Z,74.70
2023-03-26T06:18:57.225Z,74.05
2023-03-26T06:20:00.720Z,73.85
2023-03-26T06:21:05.768Z,73.30
2023-03-26T06:22:08.641Z,73.23
2023-03-26T06:23:11.661Z,72.90
2023-03-26T06:24:16.757Z,72.18
2023-03-26T06:25:20.041Z,71.99
2023-03-26T06:26:23.302Z,72.14
2023-03-26T06:27:26.399Z,72.00
2023-03-26T06:28:31.900Z,71.91
2023-03-26T06:29:34.914Z,71.91
2023-03-26T06:30:38.211Z,71.60
2023-03-26T06:31:42.066Z,71.36
2023-03-26T06:32:45.098Z,71.51
2023-03-26T06:33:48.967Z,71.38
2023-03-26T06:34:51.812Z,69.78
2023-03-26T06:35:55.034Z,70.17
2023-03-26T06:36:58.691Z,69.94
2023-03-26T06:38:02.906Z,69.48
2023-03-26T06:39:07.823Z,68.46
2023-03-26T06:40:12.371Z,68.49
2023-03-26T06:41:16.142Z,68.97
2023-03-26T06:42:19.509Z,68.82
2023-03-26T06:43:22.693Z,68.59
2023-03-26T06:44:25.928Z,68.34
2023-03-26T06:45:29.828Z,66.66
2023-03-26T06:46:33.622Z,66.27
2023-03-26T06:47:36.752Z,65.00
2023-03-26T06:48:42.381Z,65.65
2023-03-26T06:49:46.602Z,64.68
2023-03-26T06:50:49.448Z,64.51
2023-03-26T06:51:52.449Z,65.06
2023-03-26T06:52:56.013Z,65.04
2023-03-26T06:53:58.986Z,65.45
2023-03-26T06:55:02.038Z,65.14
2023-03-26T06:56:07.163Z,63.90
2023-03-26T06:57:12.222Z,64.22
2023-03-26T06:58:15.198Z,63.03
2023-03-26T06:59:18.236Z,62.82
2023-03-26T07:00:22.209Z,61.36
2023-03-26T07:01:25.304Z,61.37
2023-03-26T07:02:28.222Z,61.23
2023-03-26T07:03:31.398Z,60.06
2023-03-26T07:04:34.669Z,60.05
2023-03-26T07:05:38.388Z,60.27
2023-03-26T07:06:41.584Z,57.84
2023-03-26T07:07:46.471Z,58.41
2023-03-26T07:08:50.556Z,58.77
2023-03-26T07:09:53.540Z,58.90
2023-03-26T07:10:57.952Z,58.24
2023-03-26T07:12:01.586Z,57.52
2023-03-26T07:13:04.615Z,58.42
2023-03-26T07:14:07.656Z,57.22
2023-03-26T07:15:11.013Z,56.60
2023-03-26T07:16:14.589Z,57.29
2023-03-26T07:17:17.656Z,57.32
2023-03-26T07:18:20.757Z,56.60
2023-03-26T07:19:23.613Z,57.67
2023-03-26T07:20:27.081Z,58.08
2023-03-26T07:21:30.693Z,58.54
2023-03-26T07:22:34.728Z,57.68
2023-03-26T07:23:38.017Z,57.81
2023-03-26T07:24:41.438Z,57.15
2023-03-26T07:25:44.791Z,56.89
2023-03-26T07:27:11.307Z,56.71
2023-03-26T07:28:28.120Z,58.00
2023-03-26T07:29:52.967Z,57.99
2023-03-26T07:31:17.068Z,57.41
2023-03-26T07:32:33.861Z,55.93
2023-03-26T07:34:13.817Z,56.30
2023-03-26T07:35:24.514Z,56.23
2023-03-26T07:36:49.428Z,55.38
2023-03-26T07:38:09.736Z,55.22
2023-03-26T07:39:22.725Z,55.63
2023-03-26T07:40:48.578Z,53.08
2023-03-26T07:42:05.148Z,52.34
2023-03-26T07:43:14.221Z,52.99
2023-03-26T07:44:28.498Z,51.88
2023-03-26T07:45:39.976Z,52.55
2023-03-26T07:46:43.403Z,51.72
2023-03-26T07:47:49.708Z,51.65
2023-03-26T07:48:55.236Z,51.15
2023-03-26T07:49:58.652Z,52.76
2023-03-26T07:51:03.341Z,51.99
2023-03-26T07:52:06.576Z,51.94
2023-03-26T07:53:10.043Z,52.08
2023-03-26T07:54:13.464Z,52.27
2023-03-26T07:55:17.592Z,51.98
2023-03-26T07:56:58.859Z,51.39
2023-03-26T07:58:20.123Z,51.62
2023-03-26T07:59:37.370Z,52.35
2023-03-26T08:00:49.090Z,52.73
2023-03-26T08:02:29.818Z,53.68
2023-03-26T08:03:58.405Z,53.30
2023-03-26T08:05:19.976Z,53.97
2023-03-26T08:06:34.238Z,52.81
2023-03-26T08:08:09.194Z,52.66
2023-03-26T08:09:27.154Z,52.42
2023-03-26T08:10:58.067Z,52.92
2023-03-26T08:12:34.708Z,52.84
2023-03-26T08:13:50.001Z,52.02
2023-03-26T08:15:29.836Z,52.46
2023-03-26T08:16:43.770Z,52.38
2023-03-26T08:17:58.381Z,52.53
2023-03-26T08:19:33.318Z,52.75
2023-03-26T08:20:49.785Z,53.69
2023-03-26T08:22:26.577Z,52.39
2023-03-26T08:24:11.322Z,51.94
2023-03-26T08:25:40.610Z,52.84
2023-03-26T08:27:08.990Z,53.64
2023-03-26T08:28:23.088Z,52.88
2023-03-26T08:29:41.495Z,53.09
2023-03-26T08:30:44.693Z,52.70
2023-03-26T08:31:50.047Z,50.59
2023-03-26T08:32:59.501Z,50.87
2023-03-26T08:34:02.855Z,51.22
2023-03-26T08:35:06.434Z,51.14
2023-03-26T08:36:10.038Z,50.45
2023-03-26T08:37:13.445Z,51.20
2023-03-26T08:38:18.769Z,52.03
2023-03-26T08:39:22.588Z,52.70
2023-03-26T08:40:49.712Z,51.60
2023-03-26T08:42:21.695Z,50.05
2023-03-26T08:43:55.124Z,51.64
2023-03-26T08:45:32.930Z,51.73
2023-03-26T08:47:00.236Z,50.30
2023-03-26T08:48:40.723Z,50.43
2023-03-26T08:50:07.955Z,49.76
2023-03-26T08:51:51.928Z,50.35
2023-03-26T08:53:23.947Z,49.36
2023-03-26T08:54:48.252Z,50.24
2023-03-26T08:56:06.739Z,49.76
2023-03-26T08:58:04.301Z,49.90
2023-03-26T08:59:38.455Z,49.63
2023-03-26T09:00:58.324Z,50.17
2023-03-26T09:02:29.429Z,49.72
2023-03-26T09:03:51.290Z,48.72
2023-03-26T09:05:30.518Z,47.76
2023-03-26T09:06:58.367Z,48.64
2023-03-26T09:08:06.945Z,50.05
2023-03-26T09:09:29.871Z,49.93
2023-03-26T09:10:57.151Z,49.36
2023-03-26T09:12:44.210Z,49.77
2023-03-26T09:14:12.053Z,49.70
2023-03-26T09:15:42.671Z,50.31
2023-03-26T09:17:07.298Z,50.05
2023-03-26T09:18:35.156Z,48.44
2023-03-26T09:19:56.398Z,48.82
2023-03-26T09:21:32.808Z,49.03
2023-03-26T09:23:05.522Z,49.27
2023-03-26T09:24:30.175Z,49.36
2023-03-26T09:26:30.199Z,47.79
2023-03-26T09:27:38.726Z,48.44
2023-03-26T09:29:19.591Z,47.10
2023-03-26T09:30:34.498Z,47.04
2023-03-26T09:31:49.452Z,45.49
2023-03-26T09:33:30.109Z,46.27
2023-03-26T09:34:40.698Z,44.16
2023-03-26T09:35:54.149Z,43.93
2023-03-26T09:37:17.800Z,43.27
2023-03-26T09:38:43.799Z,44.98
2023-03-26T09:39:54.021Z,44.88
2023-03-26T09:41:14.276Z,45.13
2023-03-26T09:42:31.677Z,45.30
2023-03-26T09:43:54.695Z,45.23
2023-03-26T09:45:29.609Z,43.24
2023-03-26T09:47:21.858Z,42.86
2023-03-26T09:48:41.936Z,42.40
2023-03-26T09:50:22.327Z,43.55
2023-03-26T09:51:41.653Z,41.55
2023-03-26T09:53:12.007Z,42.90
2023-03-26T09:54:39.532Z,44.31
2023-03-26T09:56:12.953Z,45.11
2023-03-26T09:57:43.062Z,43.63
2023-03-26T09:59:03.890Z,43.07
2023-03-26T10:00:32.832Z,40.09
2023-03-26T10:02:08.696Z,40.85
2023-03-26T10:03:11.625Z,41.40
2023-03-26T10:04:42.391Z,41.32
2023-03-26T10:05:58.626Z,41.86
2023-03-26T10:07:16.446Z,42.85
2023-03-26T10:08:25.495Z,42.89
2023-03-26T10:09:42.249Z,42.79
2023-03-26T10:10:56.830Z,43.22
2023-03-26T10:12:24.073Z,43.81
2023-03-26T10:13:51.452Z,43.52
2023-03-26T10:15:14.444Z,45.43
2023-03-26T10:16:49.869Z,45.78
2023-03-26T10:18:05.094Z,45.72
2023-03-26T10:20:09.945Z,46.10
2023-03-26T10:21:52.575Z,46.48
2023-03-26T10:23:14.881Z,46.69
2023-03-26T10:24:55.184Z,46.83
2023-03-26T10:26:19.803Z,47.58
2023-03-26T10:27:47.386Z,49.28
2023-03-26T10:29:15.082Z,50.89
2023-03-26T10:30:30.128Z,53.18
2023-03-26T10:32:00.139Z,55.35
2023-03-26T10:33:25.077Z,56.63
2023-03-26T10:35:06.971Z,58.20
2023-03-26T10:36:48.133Z,58.14
2023-03-26T10:37:59.635Z,58.82
2023-03-26T10:39:37.368Z,58.83
2023-03-26T10:41:02.827Z,57.39
2023-03-26T10:42:33.172Z,57.59
2023-03-26T10:44:08.819Z,57.93
2023-03-26T10:45:41.294Z,58.20
2023-03-26T10:46:49.958Z,56.14
2023-03-26T10:48:12.685Z,55.88
2023-03-26T10:49:34.033Z,56.27
2023-03-26T10:51:21.561Z,57.14
2023-03-26T10:52:30.229Z,56.33
2023-03-26T10:53:50.522Z,55.60
2023-03-26T10:55:04.078Z,55.60
2023-03-26T10:56:20.575Z,54.65
2023-03-26T10:57:41.202Z,54.36
2023-03-26T10:58:48.520Z,54.32
2023-03-26T10:59:58.244Z,54.16
2023-03-26T11:01:02.189Z,55.13
2023-03-26T11:02:29.472Z,55.58
2023-03-26T11:03:52.350Z,56.60
2023-03-26T11:05:21.528Z,56.58
2023-03-26T11:06:34.208Z,56.54
2023-03-26T11:07:58.126Z,56.51
2023-03-26T11:09:12.625Z,56.19
2023-03-26T11:10:52.312Z,55.99
2023-03-26T11:12:25.457Z,55.12
2023-03-26T11:13:44.273Z,54.48
2023-03-26T11:15:04.017Z,54.33
2023-03-26T11:16:22.280Z,53.09
2023-03-26T11:17:57.590Z,51.98
2023-03-26T11:19:14.004Z,50.71
2023-03-26T11:20:40.117Z,51.05
2023-03-26T11:22:06.513Z,51.68
2023-03-26T11:23:29.934Z,51.65
2023-03-26T11:25:02.379Z,51.30
2023-03-26T11:26:26.514Z,53.00
2023-03-26T11:27:41.019Z,53.34
2023-03-26T11:29:04.648Z,53.50
2023-03-26T11:30:29.843Z,53.32
2023-03-26T11:32:02.063Z,53.96
2023-03-26T11:33:14.151Z,53.53
2023-03-26T11:34:21.987Z,53.03
2023-03-26T11:35:53.394Z,52.48
2023-03-26T11:36:57.895Z,50.48
2023-03-26T11:38:16.146Z,49.69
2023-03-26T11:39:26.033Z,48.77
2023-03-26T11:40:41.149Z,48.47
2023-03-26T11:41:45.002Z,48.37
2023-03-26T11:42:53.410Z,49.29
2023-03-26T11:44:00.679Z,49.32
2023-03-26T11:45:08.567Z,46.04
2023-03-26T11:46:15.968Z,47.29
2023-03-26T11:47:25.409Z,47.55
2023-03-26T11:48:46.583Z,45.82
2023-03-26T11:49:52.589Z,46.53
2023-03-26T11:51:33.302Z,46.49
2023-03-26T11:52:37.044Z,46.14
2023-03-26T11:53:40.705Z,47.08
2023-03-26T11:54:48.414Z,44.63
2023-03-26T11:56:05.613Z,45.59
2023-03-26T11:57:14.874Z,45.53
2023-03-26T11:58:47.512Z,45.01
2023-03-26T11:59:58.237Z,45.98
2023-03-26T12:01:13.097Z,45.58
2023-03-26T12:02:38.104Z,45.78
2023-03-26T12:03:41.459Z,45.74
2023-03-26T12:04:51.157Z,47.10
2023-03-26T12:05:59.833Z,47.73
2023-03-26T12:07:23.588Z,48.33
2023-03-26T12:08:39.208Z,49.28
2023-03-26T12:09:57.716Z,49.57
2023-03-26T12:11:27.661Z,49.89
2023-03-26T12:12:42.147Z,50.29
2023-03-26T12:13:52.892Z,47.04
2023-03-26T12:14:55.909Z,46.80
2023-03-26T12:16:02.223Z,47.46
2023-03-26T12:17:09.186Z,47.34
2023-03-26T12:18:40.103Z,46.54
2023-03-26T12:19:45.890Z,46.63
2023-03-26T12:20:49.730Z,46.26
2023-03-26T12:21:53.250Z,45.34
2023-03-26T12:22:59.654Z,44.40
2023-03-26T12:24:06.354Z,45.69
2023-03-26T12:25:10.069Z,45.94
2023-03-26T12:26:20.960Z,45.38
2023-03-26T12:27:31.171Z,43.60
2023-03-26T12:28:34.215Z,45.10
2023-03-26T12:29:37.360Z,45.29
2023-03-26T12:30:58.347Z,44.37
2023-03-26T12:32:14.330Z,42.89
2023-03-26T12:33:27.378Z,43.44
2023-03-26T12:34:35.922Z,42.62
2023-03-26T12:35:39.283Z,43.51
2023-03-26T12:36:49.734Z,42.94
2023-03-26T12:37:57.756Z,42.22
2023-03-26T12:39:16.671Z,42.13
2023-03-26T12:40:43.893Z,39.95
2023-03-26T12:44:47.708Z,41.32
2023-03-26T12:44:56.099Z,40.37
2023-03-26T12:44:59.788Z,40.73
2023-03-26T12:47:55.325Z,42.07
2023-03-26T12:47:58.862Z,40.95
2023-03-26T12:49:09.496Z,40.18
2023-03-26T12:50:15.315Z,40.52
2023-03-26T12:51:18.264Z,40.83
2023-03-26T12:52:54.037Z,38.39
2023-03-26T12:54:14.259Z,35.71
2023-03-26T12:55:25.001Z,36.73
2023-03-26T12:56:41.090Z,36.64
2023-03-26T12:57:52.585Z,35.06
2023-03-26T12:59:14.391Z,34.54
2023-03-26T13:00:38.985Z,34.49
2023-03-26T13:01:55.040Z,35.61
2023-03-26T13:03:20.188Z,35.80
2023-03-26T13:04:38.341Z,36.73
2023-03-26T13:05:47.405Z,37.14
2023-03-26T13:07:08.173Z,36.80
2023-03-26T13:08:32.968Z,36.64
2023-03-26T13:09:57.963Z,37.03
2023-03-26T13:11:21.760Z,35.82
2023-03-26T13:12:53.951Z,35.40
2023-03-26T13:14:22.419Z,35.86
2023-03-26T13:16:03.045Z,36.06
2023-03-26T13:17:49.103Z,36.87
2023-03-26T13:19:02.327Z,35.70
2023-03-26T13:20:12.734Z,36.26
2023-03-26T13:21:29.201Z,37.28
2023-03-26T13:22:59.517Z,37.09
2023-03-26T13:24:16.620Z,37.20
2023-03-26T13:25:19.812Z,36.64
2023-03-26T13:27:05.714Z,37.17
2023-03-26T13:28:18.078Z,35.54
2023-03-26T13:29:37.097Z,36.31
2023-03-26T13:30:49.158Z,34.99
2023-03-26T13:32:30.633Z,35.09
2023-03-26T13:33:46.891Z,34.04
2023-03-26T13:35:16.362Z,33.46
2023-03-26T13:36:30.024Z,34.85
2023-03-26T13:37:52.008Z,34.69
2023-03-26T13:39:38.019Z,35.06
2023-03-26T13:40:56.205Z,35.52
2023-03-26T13:42:09.400Z,34.65
2023-03-26T13:43:32.095Z,34.69
2023-03-26T13:45:04.607Z,35.59
2023-03-26T13:46:27.032Z,35.09
2023-03-26T13:47:34.504Z,35.83
2023-03-26T13:49:16.217Z,36.28
2023-03-26T13:50:31.826Z,33.81
2023-03-26T13:51:50.925Z,35.77
2023-03-26T13:53:01.118Z,34.47
2023-03-26T13:54:18.172Z,34.70
2023-03-26T13:56:00.369Z,34.20
2023-03-26T13:57:20.767Z,35.02
2023-03-26T13:58:47.257Z,34.74
2023-03-26T14:00:27.101Z,35.37
2023-03-26T14:01:43.979Z,35.79
2023-03-26T14:03:03.381Z,35.41
2023-03-26T14:04:26.036Z,36.31
2023-03-26T14:05:40.095Z,35.79
2023-03-26T14:06:57.819Z,35.50
2023-03-26T14:08:06.968Z,34.77
2023-03-26T14:09:23.412Z,35.35
2023-03-26T14:10:31.308Z,36.39
2023-03-26T14:11:57.038Z,35.60
2023-03-26T14:13:28.246Z,35.14
2023-03-26T14:14:36.823Z,34.77
2023-03-26T14:15:46.736Z,34.69
2023-03-26T14:17:02.820Z,35.06
2023-03-26T14:18:37.884Z,34.91
2023-03-26T14:20:32.124Z,35.38
2023-03-26T14:21:40.614Z,35.48
2023-03-26T14:23:37.710Z,35.63
2023-03-26T14:26:35.875Z,35.21
2023-03-26T14:27:51.678Z,35.56
2023-03-26T14:29:15.830Z,35.59
2023-03-26T14:30:56.795Z,34.80
2023-03-26T14:32:03.086Z,34.29
2023-03-26T14:33:28.205Z,34.00
2023-03-26T14:35:03.322Z,34.32
2023-03-26T14:37:06.444Z,34.11
2023-03-26T14:38:47.402Z,34.98
2023-03-26T14:40:17.307Z,35.25
2023-03-26T14:41:48.631Z,34.17
2023-03-26T14:43:25.882Z,34.29
2023-03-26T14:45:06.528Z,34.16
2023-03-26T14:46:24.185Z,34.69
2023-03-26T14:47:29.763Z,34.36
2023-03-26T14:49:02.775Z,34.53
2023-03-26T14:50:42.828Z,34.32
2023-03-26T14:52:13.862Z,34.65
2023-03-26T14:53:39.100Z,33.41
2023-03-26T14:54:47.367Z,33.73
2023-03-26T14:56:15.727Z,34.21
2023-03-26T14:57:52.789Z,33.74
2023-03-26T14:59:21.418Z,33.77
2023-03-26T15:01:05.702Z,34.47
2023-03-26T15:02:55.522Z,34.94
2023-03-26T15:04:29.603Z,35.32
2023-03-26T15:06:04.754Z,35.58
2023-03-26T15:07:37.680Z,35.25
2023-03-26T15:08:59.057Z,35.24
2023-03-26T15:10:40.268Z,33.98
2023-03-26T15:12:12.808Z,33.44
2023-03-26T15:14:04.374Z,33.70
2023-03-26T15:15:36.399Z,33.08
2023-03-26T15:16:58.469Z,33.79
2023-03-26T15:18:19.762Z,34.32
2023-03-26T15:20:08.831Z,34.18
2023-03-26T15:21:51.419Z,34.45
2023-03-26T15:23:17.675Z,34.35
2023-03-26T15:24:46.928Z,34.65
2023-03-26T15:26:11.451Z,35.16
2023-03-26T15:27:18.073Z,35.30
2023-03-26T15:28:53.292Z,34.76
2023-03-26T15:30:28.807Z,35.07
2023-03-26T15:31:57.943Z,34.94
2023-03-26T15:33:28.807Z,34.79
2023-03-26T15:34:50.093Z,34.83
2023-03-26T15:36:15.109Z,35.06
2023-03-26T15:37:42.805Z,35.16
2023-03-26T15:39:25.300Z,35.21
2023-03-26T15:40:35.504Z,35.24
2023-03-26T15:41:57.057Z,35.60
2023-03-26T15:43:06.370Z,35.50
2023-03-26T15:44:50.808Z,35.54
2023-03-26T15:46:25.665Z,35.14
2023-03-26T15:47:47.759Z,35.00